Station History

Weather Underground - logo

Station Historical Data
Daily Summary for August 3, 2017 Units:  English    Metric   Both
« Previous Day
Next Day »
Daily Weekly Monthly Yearly Custom
  High: Low: Average:
Temperature: 91.6 °F 79.1 °F 85.7 °F
Dew Point: 70.5 °F 58.8 °F 66.4 °F
Humidity: 71 % 34 % 54 %
Wind Speed: 3.5 mph 0.0 mph 0.5 mph
Wind Gust: 3.5 mph - -
Wind:- - SSE
Pressure: 29.89 in 29.79 in -
Precipitation: 0.00 in    
Historical Graphs
 
 
Tabular Data for August 3, 2017
Time Temperature Dew Point Pressure Wind Wind Speed Wind Gust Humidity Rainfall Rate (Hourly)
00:00 85.4 °F 66.9 °F 29.82 in Calm     54 % 0.00 in
00:05 85.4 °F 66.3 °F 29.83 in Calm     53 % 0.00 in
00:10 85.3 °F 66.2 °F 29.82 in SE 1.2 mph 1.2 mph 53 % 0.00 in
00:15 85.3 °F 66.2 °F 29.82 in SE 1.2 mph   53 % 0.00 in
00:20 85.2 °F 66.1 °F 29.82 in SE 1.2 mph   53 % 0.00 in
00:25 85.2 °F 66.1 °F 29.82 in Calm     53 % 0.00 in
00:30 85.3 °F 65.7 °F 29.81 in Calm     52 % 0.00 in
00:35 85.4 °F 65.8 °F 29.81 in SE 1.2 mph   52 % 0.00 in
00:40 85.4 °F 66.3 °F 29.82 in SSE 1.2 mph   53 % 0.00 in
00:45 85.3 °F 66.2 °F 29.81 in SSE 2.3 mph 2.3 mph 53 % 0.00 in
00:50 85.1 °F 66.0 °F 29.81 in SSE 3.5 mph 3.5 mph 53 % 0.00 in
00:55 84.9 °F 65.9 °F 29.82 in SE 2.3 mph 2.3 mph 53 % 0.00 in
01:00 84.9 °F 65.3 °F 29.82 in ESE 2.3 mph 2.3 mph 52 % 0.00 in
01:05 85.0 °F 65.4 °F 29.82 in ESE 1.2 mph 1.2 mph 52 % 0.00 in
01:11 85.3 °F 65.1 °F 29.82 in SE 2.3 mph 2.3 mph 51 % 0.00 in
01:15 85.5 °F 65.3 °F 29.82 in East 2.3 mph 2.3 mph 51 % 0.00 in
01:20 85.7 °F 64.9 °F 29.82 in ESE 3.5 mph 3.5 mph 50 % 0.00 in
01:26 86.0 °F 65.2 °F 29.82 in ESE 2.0 mph 2.0 mph 50 % 0.00 in
01:31 86.1 °F 65.3 °F 29.82 in ESE 1.2 mph 1.2 mph 50 % 0.00 in
01:36 86.0 °F 65.2 °F 29.82 in ESE 1.2 mph 1.2 mph 50 % 0.00 in
01:41 85.9 °F 65.1 °F 29.82 in SE 1.2 mph 1.2 mph 50 % 0.00 in
01:46 85.8 °F 65.0 °F 29.81 in SE 1.2 mph   50 % 0.00 in
01:51 85.7 °F 64.9 °F 29.81 in Calm     50 % 0.00 in
01:56 85.6 °F 66.0 °F 29.81 in Calm     52 % 0.00 in
02:01 85.2 °F 65.6 °F 29.80 in Calm     52 % 0.00 in
02:06 85.0 °F 65.4 °F 29.81 in SE 1.0 mph   52 % 0.00 in
02:11 84.8 °F 65.2 °F 29.81 in Calm     52 % 0.00 in
02:16 84.7 °F 66.2 °F 29.81 in Calm     54 % 0.00 in
02:21 84.3 °F 66.4 °F 29.80 in SE 1.2 mph 1.2 mph 55 % 0.00 in
02:26 83.9 °F 66.0 °F 29.80 in Calm     55 % 0.00 in
02:31 83.7 °F 66.3 °F 29.80 in Calm     56 % 0.00 in
02:36 83.6 °F 65.7 °F 29.80 in Calm     55 % 0.00 in
02:41 83.6 °F 66.2 °F 29.80 in Calm     56 % 0.00 in
02:46 83.3 °F 68.0 °F 29.80 in Calm     60 % 0.00 in
02:51 82.6 °F 68.3 °F 29.80 in SE 1.2 mph   62 % 0.00 in
02:56 82.1 °F 68.3 °F 29.79 in SW 1.2 mph 1.2 mph 63 % 0.00 in
03:01 81.7 °F 67.9 °F 29.79 in Calm     63 % 0.00 in
03:06 81.6 °F 67.3 °F 29.79 in SW 1.2 mph   62 % 0.00 in
03:11 81.6 °F 67.3 °F 29.79 in WSW 1.2 mph   62 % 0.00 in
03:16 81.6 °F 66.8 °F 29.80 in Calm     61 % 0.00 in
03:21 81.6 °F 66.8 °F 29.80 in WSW 1.2 mph   61 % 0.00 in
03:26 81.6 °F 67.3 °F 29.81 in Calm     62 % 0.00 in
03:31 81.6 °F 66.8 °F 29.81 in Calm     61 % 0.00 in
03:36 81.4 °F 67.6 °F 29.81 in Calm     63 % 0.00 in
03:41 81.1 °F 67.3 °F 29.82 in Calm     63 % 0.00 in
03:46 80.8 °F 67.0 °F 29.82 in Calm   0.1 mph 63 % 0.00 in
03:51 80.7 °F 67.4 °F 29.82 in Calm     64 % 0.00 in
03:56 80.5 °F 67.2 °F 29.82 in Calm     64 % 0.00 in
04:01 80.3 °F 67.0 °F 29.82 in Calm     64 % 0.00 in
04:06 80.1 °F 66.8 °F 29.82 in Calm     64 % 0.00 in
04:11 80.0 °F 67.6 °F 29.82 in Calm     66 % 0.00 in
04:16 79.9 °F 68.0 °F 29.82 in Calm     67 % 0.00 in
04:21 79.8 °F 68.3 °F 29.82 in Calm     68 % 0.00 in
04:26 79.7 °F 68.2 °F 29.82 in Calm     68 % 0.00 in
04:31 79.5 °F 68.4 °F 29.82 in Calm     69 % 0.00 in
04:36 79.3 °F 68.2 °F 29.82 in Calm     69 % 0.00 in
04:41 79.2 °F 68.1 °F 29.82 in Calm     69 % 0.00 in
04:46 79.1 °F 67.6 °F 29.82 in Calm     68 % 0.00 in
04:51 79.3 °F 67.4 °F 29.82 in SSW 1.2 mph   67 % 0.00 in
04:56 79.4 °F 67.5 °F 29.82 in Calm     67 % 0.00 in
05:01 79.5 °F 67.1 °F 29.83 in Calm     66 % 0.00 in
05:04 79.6 °F 67.2 °F 29.83 in Calm     66 % 0.00 in
05:09 79.6 °F 66.8 °F 29.83 in Calm     65 % 0.00 in
05:14 79.5 °F 66.7 °F 29.83 in Calm     65 % 0.00 in
05:19 79.3 °F 67.0 °F 29.83 in Calm     66 % 0.00 in
05:24 79.3 °F 67.0 °F 29.83 in Calm     66 % 0.00 in
05:29 79.3 °F 66.5 °F 29.83 in Calm     65 % 0.00 in
05:34 79.7 °F 66.0 °F 29.83 in SE 1.2 mph   63 % 0.00 in
05:39 80.0 °F 66.7 °F 29.83 in Calm     64 % 0.00 in
05:44 80.1 °F 65.9 °F 29.83 in Calm     62 % 0.00 in
05:49 80.3 °F 67.0 °F 29.83 in Calm     64 % 0.00 in
05:54 80.1 °F 66.4 °F 29.83 in Calm     63 % 0.00 in
05:59 80.1 °F 65.4 °F 29.83 in SE 1.2 mph   61 % 0.00 in
06:04 80.3 °F 66.1 °F 29.83 in Calm     62 % 0.00 in
06:09 80.3 °F 67.0 °F 29.83 in Calm     64 % 0.00 in
06:14 80.0 °F 66.3 °F 29.83 in Calm     63 % 0.00 in
06:15 80.0 °F 66.7 °F 29.83 in Calm     64 % 0.00 in
06:20 79.9 °F 66.6 °F 29.84 in Calm     64 % 0.00 in
06:25 79.8 °F 65.6 °F 29.84 in Calm     62 % 0.00 in
06:30 80.0 °F 65.8 °F 29.84 in Calm     62 % 0.00 in
06:35 80.2 °F 65.5 °F 29.84 in Calm     61 % 0.00 in
06:40 80.3 °F 66.1 °F 29.84 in Calm     62 % 0.00 in
06:45 80.3 °F 65.1 °F 29.84 in Calm     60 % 0.00 in
06:50 80.6 °F 64.9 °F 29.85 in Calm     59 % 0.00 in
06:55 80.8 °F 66.6 °F 29.84 in Calm     62 % 0.00 in
07:00 81.0 °F 68.1 °F 29.84 in Calm     65 % 0.00 in
07:05 80.8 °F 68.4 °F 29.84 in Calm     66 % 0.00 in
07:10 80.7 °F 67.4 °F 29.84 in Calm     64 % 0.00 in
07:15 80.8 °F 67.5 °F 29.85 in Calm     64 % 0.00 in
07:20 80.8 °F 67.5 °F 29.85 in Calm     64 % 0.00 in
07:25 81.0 °F 68.6 °F 29.85 in Calm     66 % 0.00 in
07:30 81.2 °F 69.2 °F 29.85 in Calm     67 % 0.00 in
07:36 81.2 °F 69.2 °F 29.85 in Calm     67 % 0.00 in
07:41 81.2 °F 70.1 °F 29.85 in Calm     69 % 0.00 in
07:46 81.1 °F 70.0 °F 29.86 in Calm     69 % 0.00 in
07:51 81.2 °F 69.6 °F 29.86 in South 1.2 mph   68 % 0.00 in
07:56 81.3 °F 69.7 °F 29.86 in Calm     68 % 0.00 in
08:01 81.5 °F 69.0 °F 29.86 in Calm     66 % 0.00 in
08:06 81.8 °F 68.4 °F 29.86 in Calm     64 % 0.00 in
08:11 82.3 °F 68.0 °F 29.86 in Calm     62 % 0.00 in
08:16 82.9 °F 67.6 °F 29.86 in Calm     60 % 0.00 in
08:21 83.4 °F 67.6 °F 29.87 in SSW 1.2 mph 1.2 mph 59 % 0.00 in
08:26 83.9 °F 68.0 °F 29.87 in Calm     59 % 0.00 in
08:31 84.5 °F 67.6 °F 29.87 in SSW 1.2 mph 1.2 mph 57 % 0.00 in
08:36 85.0 °F 68.6 °F 29.87 in SSE 1.2 mph 1.2 mph 58 % 0.00 in
08:41 85.5 °F 68.5 °F 29.87 in Calm     57 % 0.00 in
08:46 86.3 °F 68.8 °F 29.87 in Calm     56 % 0.00 in
08:51 87.1 °F 69.5 °F 29.87 in Calm     56 % 0.00 in
08:56 88.0 °F 68.7 °F 29.87 in Calm     53 % 0.00 in
09:01 88.3 °F 67.9 °F 29.87 in SSE 1.2 mph 1.2 mph 51 % 0.00 in
09:06 88.6 °F 68.7 °F 29.87 in Calm     52 % 0.00 in
09:11 88.7 °F 66.5 °F 29.87 in SSE 1.2 mph 1.2 mph 48 % 0.00 in
09:16 88.9 °F 67.9 °F 29.87 in Calm     50 % 0.00 in
09:21 89.1 °F 68.0 °F 29.87 in SE 1.2 mph 1.2 mph 50 % 0.00 in
09:26 88.8 °F 67.8 °F 29.87 in Calm     50 % 0.00 in
09:31 88.5 °F 68.6 °F 29.87 in SSE 1.2 mph   52 % 0.00 in
09:36 88.5 °F 70.3 °F 29.87 in Calm     55 % 0.00 in
09:37 88.4 °F 70.2 °F 29.87 in SE 1.2 mph   55 % 0.00 in
09:42 88.2 °F 70.5 °F 29.87 in Calm     56 % 0.00 in
09:47 87.7 °F 68.4 °F 29.87 in SSW 1.2 mph 1.2 mph 53 % 0.00 in
09:52 87.5 °F 67.7 °F 29.87 in SSE 1.2 mph 1.2 mph 52 % 0.00 in
09:57 87.3 °F 66.4 °F 29.87 in ESE 2.0 mph 2.0 mph 50 % 0.00 in
10:02 87.3 °F 66.4 °F 29.88 in South 1.0 mph 1.0 mph 50 % 0.00 in
10:07 87.4 °F 68.7 °F 29.88 in SSW 1.2 mph 1.2 mph 54 % 0.00 in
10:12 87.7 °F 69.0 °F 29.88 in Calm     54 % 0.00 in
10:17 88.0 °F 69.8 °F 29.87 in Calm     55 % 0.00 in
10:22 87.9 °F 68.1 °F 29.88 in ESE 1.2 mph 1.2 mph 52 % 0.00 in
10:27 87.9 °F 68.1 °F 29.88 in SSE 1.2 mph   52 % 0.00 in
10:32 87.9 °F 65.2 °F 29.88 in South 2.3 mph 2.3 mph 47 % 0.00 in
10:37 88.0 °F 64.0 °F 29.88 in SE 1.2 mph 1.2 mph 45 % 0.00 in
10:42 88.1 °F 62.1 °F 29.88 in SSE 2.3 mph 2.3 mph 42 % 0.00 in
10:47 88.2 °F 62.2 °F 29.88 in SSE 1.2 mph 1.2 mph 42 % 0.00 in
10:52 88.2 °F 62.9 °F 29.88 in SSW 1.2 mph 1.2 mph 43 % 0.00 in
10:57 88.4 °F 66.2 °F 29.88 in Calm     48 % 0.00 in
11:02 88.4 °F 66.2 °F 29.88 in Calm     48 % 0.00 in
11:07 88.2 °F 66.0 °F 29.88 in SE 1.2 mph 1.2 mph 48 % 0.00 in
11:12 88.3 °F 68.4 °F 29.88 in SSE 1.2 mph 1.2 mph 52 % 0.00 in
11:17 88.4 °F 69.1 °F 29.88 in South 1.0 mph 1.0 mph 53 % 0.00 in
11:22 88.3 °F 69.0 °F 29.88 in ESE 2.3 mph 2.3 mph 53 % 0.00 in
11:27 88.4 °F 69.1 °F 29.88 in ESE 3.5 mph 3.5 mph 53 % 0.00 in
11:32 88.4 °F 68.5 °F 29.88 in SE 2.3 mph 2.3 mph 52 % 0.00 in
11:37 88.7 °F 69.4 °F 29.88 in ESE 2.3 mph 2.3 mph 53 % 0.00 in
11:42 89.3 °F 68.2 °F 29.88 in SSE 2.0 mph 2.0 mph 50 % 0.00 in
11:47 90.0 °F 66.4 °F 29.88 in SE 2.3 mph 2.3 mph 46 % 0.00 in
11:52 90.7 °F 67.1 °F 29.88 in SE 2.3 mph 2.3 mph 46 % 0.00 in
11:57 91.1 °F 64.8 °F 29.88 in SSE 3.5 mph 3.5 mph 42 % 0.00 in
12:02 91.1 °F 66.2 °F 29.88 in Calm     44 % 0.00 in
12:07 91.2 °F 62.8 °F 29.88 in SSE 2.3 mph 2.3 mph 39 % 0.00 in
12:12 91.5 °F 65.8 °F 29.88 in SSW 2.3 mph 2.3 mph 43 % 0.00 in
12:17 91.6 °F 65.3 °F 29.88 in SSE 2.3 mph 2.3 mph 42 % 0.00 in
12:23 91.2 °F 64.2 °F 29.88 in SE 2.3 mph 2.3 mph 41 % 0.00 in
12:28 91.0 °F 64.7 °F 29.88 in SSE 2.3 mph 2.3 mph 42 % 0.00 in
12:33 91.1 °F 64.8 °F 29.88 in Calm     42 % 0.00 in
12:38 90.9 °F 65.3 °F 29.88 in Calm     43 % 0.00 in
12:43 91.0 °F 66.1 °F 29.89 in Calm     44 % 0.00 in
12:48 90.9 °F 66.0 °F 29.89 in SSE 2.3 mph 2.3 mph 44 % 0.00 in
12:53 90.8 °F 66.5 °F 29.89 in Calm     45 % 0.00 in
12:58 90.7 °F 65.1 °F 29.88 in South 2.0 mph 2.0 mph 43 % 0.00 in
13:03 90.4 °F 66.2 °F 29.88 in Calm     45 % 0.00 in
13:08 90.1 °F 65.9 °F 29.88 in SSE 1.2 mph 1.2 mph 45 % 0.00 in
13:13 89.8 °F 66.3 °F 29.88 in SSE 1.2 mph 1.2 mph 46 % 0.00 in
13:18 89.7 °F 66.2 °F 29.88 in Calm     46 % 0.00 in
13:19 89.8 °F 66.3 °F 29.88 in South 1.2 mph 1.2 mph 46 % 0.00 in
13:24 89.9 °F 66.3 °F 29.88 in Calm     46 % 0.00 in
13:29 89.9 °F 66.3 °F 29.88 in SSE 1.2 mph   46 % 0.00 in
13:34 89.8 °F 66.9 °F 29.88 in Calm   0.1 mph 47 % 0.00 in
13:39 89.9 °F 67.6 °F 29.88 in Calm     48 % 0.00 in
13:45 90.2 °F 67.9 °F 29.88 in South 1.0 mph   48 % 0.00 in
13:50 90.5 °F 67.5 °F 29.87 in SSE 2.3 mph 2.3 mph 47 % 0.00 in
13:55 90.6 °F 68.8 °F 29.87 in SSE 1.2 mph 1.2 mph 49 % 0.00 in
14:00 90.9 °F 68.5 °F 29.87 in SSE 1.0 mph 1.0 mph 48 % 0.00 in
14:05 91.2 °F 67.5 °F 29.87 in Calm     46 % 0.00 in
14:10 91.0 °F 68.0 °F 29.87 in SE 1.2 mph 1.2 mph 47 % 0.00 in
14:15 90.7 °F 67.1 °F 29.87 in SE 1.2 mph   46 % 0.00 in
14:20 90.6 °F 67.0 °F 29.88 in SE 1.2 mph 1.2 mph 46 % 0.00 in
14:25 90.6 °F 68.8 °F 29.88 in SSE 1.0 mph   49 % 0.00 in
14:30 90.4 °F 66.2 °F 29.87 in ESE 1.2 mph 1.2 mph 45 % 0.00 in
14:35 90.2 °F 67.9 °F 29.87 in SE 1.2 mph 1.2 mph 48 % 0.00 in
14:40 90.2 °F 66.6 °F 29.87 in SE 1.2 mph 1.2 mph 46 % 0.00 in
14:45 90.3 °F 66.7 °F 29.87 in East 1.2 mph 1.2 mph 46 % 0.00 in
14:50 90.5 °F 65.6 °F 29.87 in ESE 1.2 mph   44 % 0.00 in
14:55 90.9 °F 65.3 °F 29.87 in SE 1.2 mph   43 % 0.00 in
15:00 91.1 °F 66.8 °F 29.86 in Calm     45 % 0.00 in
15:05 91.2 °F 67.5 °F 29.86 in Calm     46 % 0.00 in
15:10 91.5 °F 67.2 °F 29.87 in Calm     45 % 0.00 in
15:15 91.5 °F 63.8 °F 29.87 in Calm     40 % 0.00 in
15:20 91.6 °F 65.3 °F 29.86 in Calm     42 % 0.00 in
15:25 91.6 °F 65.3 °F 29.86 in Calm     42 % 0.00 in
15:30 91.5 °F 64.5 °F 29.86 in Calm     41 % 0.00 in
15:35 91.2 °F 62.0 °F 29.86 in Calm     38 % 0.00 in
15:40 91.2 °F 62.8 °F 29.86 in Calm     39 % 0.00 in
15:45 91.1 °F 64.8 °F 29.86 in Calm     42 % 0.00 in
15:50 90.8 °F 65.2 °F 29.85 in Calm     43 % 0.00 in
15:55 90.8 °F 65.9 °F 29.85 in Calm     44 % 0.00 in
16:00 91.1 °F 69.3 °F 29.85 in Calm     49 % 0.00 in
16:05 91.2 °F 68.8 °F 29.85 in Calm     48 % 0.00 in
16:10 90.9 °F 67.3 °F 29.85 in Calm     46 % 0.00 in
16:15 90.8 °F 67.2 °F 29.85 in Calm     46 % 0.00 in
16:20 90.8 °F 64.5 °F 29.85 in ESE 1.2 mph   42 % 0.00 in
16:25 91.1 °F 67.4 °F 29.84 in Calm     46 % 0.00 in
16:30 91.0 °F 66.1 °F 29.84 in ESE 1.2 mph   44 % 0.00 in
16:35 90.8 °F 65.2 °F 29.84 in Calm     43 % 0.00 in
16:40 90.9 °F 66.0 °F 29.84 in Calm     44 % 0.00 in
16:45 91.1 °F 63.4 °F 29.84 in Calm     40 % 0.00 in
16:50 91.2 °F 63.5 °F 29.84 in Calm     40 % 0.00 in
16:55 91.3 °F 60.6 °F 29.83 in Calm     36 % 0.00 in
17:00 91.4 °F 59.1 °F 29.83 in Calm     34 % 0.00 in
17:05 91.2 °F 63.5 °F 29.83 in Calm     40 % 0.00 in
17:10 91.1 °F 63.4 °F 29.83 in Calm     40 % 0.00 in
17:15 91.1 °F 59.6 °F 29.83 in Calm     35 % 0.00 in
17:20 91.4 °F 62.2 °F 29.83 in Calm     38 % 0.00 in
17:25 91.4 °F 62.2 °F 29.83 in Calm     38 % 0.00 in
17:30 91.5 °F 65.8 °F 29.83 in Calm     43 % 0.00 in
17:35 91.5 °F 66.5 °F 29.82 in Calm     44 % 0.00 in
17:36 91.5 °F 66.5 °F 29.82 in Calm     44 % 0.00 in
17:41 91.5 °F 65.2 °F 29.82 in Calm     42 % 0.00 in
17:46 91.4 °F 63.7 °F 29.82 in Calm     40 % 0.00 in
17:51 91.4 °F 63.0 °F 29.82 in Calm     39 % 0.00 in
17:56 91.2 °F 64.2 °F 29.82 in Calm     41 % 0.00 in
18:01 91.0 °F 65.4 °F 29.82 in Calm     43 % 0.00 in
18:06 90.6 °F 67.6 °F 29.82 in Calm     47 % 0.00 in
18:11 90.1 °F 69.0 °F 29.82 in Calm     50 % 0.00 in
18:16 89.8 °F 68.7 °F 29.82 in NW 1.2 mph 1.2 mph 50 % 0.00 in
18:21 89.5 °F 65.4 °F 29.82 in NW 1.2 mph 1.2 mph 45 % 0.00 in
18:26 89.4 °F 64.6 °F 29.82 in NW 1.2 mph 1.2 mph 44 % 0.00 in
18:31 89.4 °F 65.9 °F 29.82 in Calm     46 % 0.00 in
18:36 89.4 °F 65.9 °F 29.82 in Calm     46 % 0.00 in
18:41 89.3 °F 65.2 °F 29.82 in Calm     45 % 0.00 in
18:42 89.3 °F 65.2 °F 29.82 in Calm     45 % 0.00 in
18:47 89.3 °F 63.9 °F 29.82 in Calm     43 % 0.00 in
18:52 89.5 °F 62.0 °F 29.82 in Calm     40 % 0.00 in
18:57 89.8 °F 60.8 °F 29.82 in Calm     38 % 0.00 in
19:02 90.0 °F 60.2 °F 29.82 in Calm     37 % 0.00 in
19:07 90.0 °F 61.7 °F 29.82 in Calm     39 % 0.00 in
19:12 90.0 °F 61.0 °F 29.82 in Calm     38 % 0.00 in
19:17 89.7 °F 62.9 °F 29.81 in Calm     41 % 0.00 in
19:22 89.3 °F 58.8 °F 29.82 in Calm     36 % 0.00 in
19:27 88.8 °F 61.4 °F 29.82 in Calm     40 % 0.00 in
19:28 88.7 °F 61.3 °F 29.82 in Calm     40 % 0.00 in
19:33 88.2 °F 61.5 °F 29.82 in Calm     41 % 0.00 in
19:38 87.8 °F 62.5 °F 29.82 in Calm     43 % 0.00 in
19:43 87.4 °F 60.8 °F 29.82 in Calm     41 % 0.00 in
19:48 87.0 °F 62.5 °F 29.82 in Calm     44 % 0.00 in
19:53 86.6 °F 65.2 °F 29.82 in Calm     49 % 0.00 in
19:58 86.2 °F 66.5 °F 29.82 in Calm     52 % 0.00 in
19:59 86.0 °F 66.3 °F 29.82 in Calm     52 % 0.00 in
20:04 85.6 °F 66.0 °F 29.82 in Calm     52 % 0.00 in
20:09 85.2 °F 65.6 °F 29.82 in Calm     52 % 0.00 in
20:16 84.8 °F 64.7 °F 29.82 in Calm     51 % 0.00 in
20:17 84.8 °F 66.3 °F 29.82 in Calm     54 % 0.00 in
20:21 84.6 °F 65.6 °F 29.81 in Calm     53 % 0.00 in
20:24 84.5 °F 66.0 °F 29.81 in Calm     54 % 0.00 in
20:26 84.5 °F 66.0 °F 29.81 in Calm     54 % 0.00 in
20:31 84.2 °F 65.8 °F 29.82 in Calm     54 % 0.00 in
20:36 84.0 °F 66.6 °F 29.82 in Calm     56 % 0.00 in
20:47 83.6 °F 67.8 °F 29.82 in Calm     59 % 0.00 in
20:52 83.4 °F 67.6 °F 29.83 in Calm     59 % 0.00 in
20:57 83.2 °F 67.4 °F 29.83 in Calm     59 % 0.00 in
21:02 83.0 °F 66.2 °F 29.83 in Calm     57 % 0.00 in
21:07 82.8 °F 66.0 °F 29.83 in Calm     57 % 0.00 in
21:12 82.7 °F 65.4 °F 29.83 in Calm     56 % 0.00 in
21:17 82.7 °F 65.4 °F 29.84 in Calm     56 % 0.00 in
21:22 82.7 °F 65.9 °F 29.84 in Calm     57 % 0.00 in
21:27 82.7 °F 64.9 °F 29.84 in Calm     55 % 0.00 in
21:32 82.6 °F 66.8 °F 29.85 in Calm     59 % 0.00 in
21:37 82.5 °F 67.2 °F 29.85 in Calm     60 % 0.00 in
21:42 82.3 °F 68.0 °F 29.85 in Calm     62 % 0.00 in
21:47 82.0 °F 67.7 °F 29.85 in Calm     62 % 0.00 in
21:52 81.8 °F 68.0 °F 29.86 in Calm     63 % 0.00 in
21:57 81.6 °F 67.8 °F 29.86 in Calm     63 % 0.00 in
22:02 81.6 °F 67.3 °F 29.86 in Calm     62 % 0.00 in
22:07 81.7 °F 68.3 °F 29.86 in Calm     64 % 0.00 in
22:12 81.6 °F 67.8 °F 29.86 in Calm     63 % 0.00 in
22:17 81.4 °F 67.1 °F 29.86 in Calm     62 % 0.00 in
22:22 81.3 °F 67.5 °F 29.86 in Calm     63 % 0.00 in
22:27 81.2 °F 69.2 °F 29.86 in Calm     67 % 0.00 in
22:32 80.7 °F 68.7 °F 29.86 in Calm     67 % 0.00 in
22:37 80.2 °F 67.8 °F 29.86 in Calm     66 % 0.00 in
22:42 79.9 °F 67.5 °F 29.86 in Calm     66 % 0.00 in
22:47 79.8 °F 68.3 °F 29.86 in Calm     68 % 0.00 in
22:52 79.6 °F 67.7 °F 29.86 in Calm     67 % 0.00 in
22:57 79.6 °F 68.1 °F 29.86 in Calm     68 % 0.00 in
23:02 79.7 °F 67.8 °F 29.86 in Calm     67 % 0.00 in
23:07 79.8 °F 67.4 °F 29.85 in Calm     66 % 0.00 in
23:12 79.8 °F 67.0 °F 29.85 in Calm     65 % 0.00 in
23:17 79.6 °F 66.3 °F 29.85 in Calm     64 % 0.00 in
23:22 79.6 °F 67.7 °F 29.85 in Calm     67 % 0.00 in
23:27 79.5 °F 67.6 °F 29.86 in Calm     67 % 0.00 in
23:33 79.4 °F 67.0 °F 29.85 in Calm     66 % 0.00 in
23:38 79.3 °F 67.4 °F 29.85 in Calm     67 % 0.00 in
23:43 79.4 °F 67.5 °F 29.86 in Calm     67 % 0.00 in
23:48 79.6 °F 67.7 °F 29.85 in Calm     67 % 0.00 in
23:53 79.6 °F 69.0 °F 29.85 in Calm     70 % 0.00 in
23:54 79.6 °F 69.0 °F 29.85 in Calm     70 % 0.00 in
23:59 79.3 °F 69.1 °F 29.85 in Calm     71 % 0.00 in
Park Place, Exeter, Tulare County, California, USA
Compliments of Weather Underground - 2.75 mb